createdAt,value
2022-12-05T00:01:42.343Z,17.60
2022-12-05T00:04:12.721Z,16.70
2022-12-05T00:06:42.949Z,16.20
2022-12-05T00:09:13.004Z,16.47
2022-12-05T00:11:42.965Z,17.10
2022-12-05T00:14:11.894Z,16.50
2022-12-05T00:16:43.315Z,17.87
2022-12-05T00:19:14.518Z,17.60
2022-12-05T00:21:43.466Z,17.03
2022-12-05T00:24:15.453Z,16.50
2022-12-05T00:26:43.958Z,16.10
2022-12-05T00:29:12.692Z,15.90
2022-12-05T00:31:42.710Z,14.37
2022-12-05T00:34:11.269Z,13.30
2022-12-05T00:36:40.031Z,12.30
2022-12-05T00:39:09.922Z,12.43
2022-12-05T00:41:38.527Z,13.57
2022-12-05T00:44:07.557Z,14.67
2022-12-05T00:46:37.333Z,12.90
2022-12-05T00:49:08.241Z,11.97
2022-12-05T00:51:38.749Z,13.13
2022-12-05T00:54:09.481Z,12.40
2022-12-05T00:56:37.653Z,13.43
2022-12-05T00:59:07.015Z,13.80
2022-12-05T01:01:37.324Z,12.23
2022-12-05T01:04:09.717Z,13.27
2022-12-05T01:06:38.417Z,13.57
2022-12-05T01:09:07.659Z,12.50
2022-12-05T01:11:41.038Z,11.80
2022-12-05T01:14:10.673Z,12.70
2022-12-05T01:16:40.342Z,12.03
2022-12-05T01:19:12.875Z,12.53
2022-12-05T01:21:41.641Z,13.43
2022-12-05T01:24:10.491Z,12.83
2022-12-05T01:26:39.067Z,13.07
2022-12-05T01:29:07.291Z,12.00
2022-12-05T01:31:37.294Z,13.20
2022-12-05T01:34:07.697Z,13.37
2022-12-05T01:36:39.263Z,13.50
2022-12-05T01:39:07.818Z,13.40
2022-12-05T01:41:38.182Z,13.97
2022-12-05T01:44:09.081Z,11.80
2022-12-05T01:46:38.997Z,14.10
2022-12-05T01:49:11.946Z,13.00
2022-12-05T01:51:47.166Z,14.23
2022-12-05T01:54:18.536Z,13.97
2022-12-05T01:56:50.784Z,12.93
2022-12-05T01:59:21.999Z,14.20
2022-12-05T02:01:50.745Z,13.13
2022-12-05T02:04:19.277Z,13.63
2022-12-05T02:06:49.214Z,14.57
2022-12-05T02:09:17.338Z,14.10
2022-12-05T02:11:52.164Z,13.27
2022-12-05T02:14:31.502Z,14.27
2022-12-05T02:17:07.722Z,13.17
2022-12-05T02:19:59.686Z,14.83
2022-12-05T02:23:02.609Z,13.40
2022-12-05T02:26:03.588Z,12.80
2022-12-05T02:28:54.393Z,12.93
2022-12-05T02:31:29.098Z,12.43
2022-12-05T02:34:06.482Z,11.90
2022-12-05T02:36:41.264Z,14.00
2022-12-05T02:39:17.635Z,14.50
2022-12-05T02:41:52.101Z,13.17
2022-12-05T02:44:26.199Z,12.57
2022-12-05T02:46:56.676Z,13.67
2022-12-05T02:49:29.777Z,12.67
2022-12-05T02:52:00.302Z,12.30
2022-12-05T02:54:30.853Z,12.43
2022-12-05T02:57:00.550Z,11.97
2022-12-05T02:59:29.090Z,11.83
2022-12-05T03:01:58.652Z,12.33
2022-12-05T03:04:28.904Z,13.80
2022-12-05T03:07:01.188Z,11.63
2022-12-05T03:09:35.281Z,12.93
2022-12-05T03:12:11.854Z,11.97
2022-12-05T03:14:45.286Z,12.67
2022-12-05T03:17:21.984Z,12.00
2022-12-05T03:19:58.124Z,12.10
2022-12-05T03:22:32.234Z,11.37
2022-12-05T03:25:00.956Z,11.83
2022-12-05T03:27:34.002Z,11.73
2022-12-05T03:30:07.761Z,11.57
2022-12-05T03:32:42.933Z,11.60
2022-12-05T03:35:15.339Z,11.20
2022-12-05T03:37:49.752Z,11.17
2022-12-05T03:40:28.617Z,10.30
2022-12-05T03:43:02.955Z,11.07
2022-12-05T03:45:35.886Z,11.87
2022-12-05T03:48:12.697Z,12.33
2022-12-05T03:50:45.367Z,12.47
2022-12-05T03:53:20.600Z,11.40
2022-12-05T03:55:55.788Z,11.50
2022-12-05T03:58:28.425Z,10.07
2022-12-05T04:01:00.549Z,12.33
2022-12-05T04:03:40.225Z,12.07
2022-12-05T04:06:14.750Z,12.07
2022-12-05T04:08:48.374Z,11.33
2022-12-05T04:11:19.713Z,11.80
2022-12-05T04:13:51.566Z,12.57
2022-12-05T04:16:42.281Z,11.90
2022-12-05T04:19:18.331Z,11.10
2022-12-05T04:21:50.105Z,11.90
2022-12-05T04:24:40.271Z,11.47
2022-12-05T04:27:19.234Z,8.80
2022-12-05T04:29:55.779Z,11.10
2022-12-05T04:32:29.018Z,11.00
2022-12-05T04:35:04.363Z,11.20
2022-12-05T04:37:36.091Z,10.53
2022-12-05T04:40:10.851Z,11.10
2022-12-05T04:42:39.829Z,9.00
2022-12-05T04:45:11.548Z,10.90
2022-12-05T04:47:45.862Z,11.17
2022-12-05T04:50:17.463Z,10.93
2022-12-05T04:52:50.970Z,11.03
2022-12-05T04:55:25.890Z,9.73
2022-12-05T04:58:01.136Z,9.97
2022-12-05T05:00:31.855Z,10.50
2022-12-05T05:03:06.588Z,10.53
2022-12-05T05:05:37.051Z,9.87
2022-12-05T05:08:05.774Z,10.53
2022-12-05T05:10:38.854Z,10.17
2022-12-05T05:13:07.057Z,10.63
2022-12-05T05:15:35.254Z,9.60
2022-12-05T05:18:03.467Z,9.90
2022-12-05T05:20:31.533Z,11.27
2022-12-05T05:23:01.258Z,9.87
2022-12-05T05:25:29.302Z,10.73
2022-12-05T05:27:57.787Z,11.53
2022-12-05T05:30:26.455Z,10.57
2022-12-05T05:32:56.137Z,11.10
2022-12-05T05:35:24.380Z,12.30
2022-12-05T05:37:52.610Z,9.77
2022-12-05T05:40:22.314Z,10.50
2022-12-05T05:42:51.775Z,11.03
2022-12-05T05:45:20.048Z,12.53
2022-12-05T05:47:50.027Z,12.00
2022-12-05T05:50:21.744Z,11.20
2022-12-05T05:52:50.721Z,11.40
2022-12-05T05:55:19.079Z,13.00
2022-12-05T05:57:48.568Z,11.97
2022-12-05T06:00:17.314Z,10.87
2022-12-05T06:02:45.904Z,10.40
2022-12-05T06:05:14.152Z,10.83
2022-12-05T06:07:42.316Z,12.17
2022-12-05T06:10:11.103Z,11.67
2022-12-05T06:12:39.215Z,11.87
2022-12-05T06:15:10.545Z,11.70
2022-12-05T06:17:38.711Z,11.30
2022-12-05T06:20:08.509Z,14.03
2022-12-05T06:22:36.933Z,13.20
2022-12-05T06:25:05.501Z,12.00
2022-12-05T06:27:33.718Z,13.70
2022-12-05T06:30:03.377Z,12.90
2022-12-05T06:32:32.843Z,12.00
2022-12-05T06:35:07.794Z,12.77
2022-12-05T06:37:38.578Z,13.77
2022-12-05T06:40:08.089Z,13.10
2022-12-05T06:42:36.221Z,12.40
2022-12-05T06:45:04.740Z,13.10
2022-12-05T06:47:34.497Z,12.17
2022-12-05T06:50:02.567Z,11.60
2022-12-05T06:52:31.069Z,11.57
2022-12-05T06:54:59.795Z,12.17
2022-12-05T06:57:29.940Z,12.93
2022-12-05T07:00:22.538Z,12.57
2022-12-05T07:02:52.830Z,12.57
2022-12-05T07:05:21.121Z,10.80
2022-12-05T07:07:49.299Z,12.33
2022-12-05T07:10:17.587Z,12.43
2022-12-05T07:12:45.737Z,12.83
2022-12-05T07:15:14.048Z,11.87
2022-12-05T07:17:42.101Z,12.57
2022-12-05T07:20:12.736Z,12.73
2022-12-05T07:22:40.855Z,12.97
2022-12-05T07:25:09.936Z,13.97
2022-12-05T07:27:38.341Z,13.30
2022-12-05T07:30:07.762Z,11.83
2022-12-05T07:32:35.887Z,13.67
2022-12-05T07:35:04.205Z,12.40
2022-12-05T07:37:33.662Z,13.30
2022-12-05T07:40:01.908Z,11.80
2022-12-05T07:42:30.083Z,12.20
2022-12-05T07:44:58.313Z,11.87
2022-12-05T07:47:26.474Z,12.60
2022-12-05T07:49:54.573Z,12.97
2022-12-05T07:52:22.893Z,14.10
2022-12-05T07:54:52.397Z,13.67
2022-12-05T07:57:20.551Z,12.47
2022-12-05T07:59:49.192Z,11.20
2022-12-05T08:02:17.501Z,12.73
2022-12-05T08:04:45.778Z,11.80
2022-12-05T08:07:14.082Z,12.27
2022-12-05T08:09:42.302Z,12.70
2022-12-05T08:12:11.881Z,12.00
2022-12-05T08:14:40.080Z,11.77
2022-12-05T08:17:08.405Z,11.53
2022-12-05T08:19:36.982Z,10.63
2022-12-05T08:22:05.227Z,11.50
2022-12-05T08:24:33.522Z,11.10
2022-12-05T08:27:01.791Z,11.20
2022-12-05T08:29:31.297Z,11.20
2022-12-05T08:31:59.639Z,10.43
2022-12-05T08:34:27.824Z,11.67
2022-12-05T08:36:56.065Z,12.63
2022-12-05T08:39:24.541Z,28.57
2022-12-05T08:41:52.614Z,14.60
2022-12-05T08:44:20.710Z,12.53
2022-12-05T08:46:51.166Z,17.80
2022-12-05T08:49:19.859Z,10.90
2022-12-05T08:51:48.106Z,9.10
2022-12-05T08:54:16.494Z,8.53
2022-12-05T08:56:44.615Z,10.40
2022-12-05T08:59:12.928Z,9.67
2022-12-05T09:01:42.362Z,10.10
2022-12-05T09:04:12.487Z,9.63
2022-12-05T09:06:41.858Z,9.87
2022-12-05T09:09:12.011Z,10.43
2022-12-05T09:11:46.184Z,10.77
2022-12-05T09:14:14.884Z,11.30
2022-12-05T09:16:46.036Z,10.87
2022-12-05T09:19:17.298Z,12.13
2022-12-05T09:21:45.542Z,11.77
2022-12-05T09:24:15.073Z,10.80
2022-12-05T09:26:43.660Z,12.03
2022-12-05T09:29:16.760Z,10.30
2022-12-05T09:31:46.644Z,10.00
2022-12-05T09:34:18.236Z,10.10
2022-12-05T09:36:51.266Z,9.27
2022-12-05T09:39:20.404Z,10.37
2022-12-05T09:42:10.169Z,8.93
2022-12-05T09:45:02.483Z,9.80
2022-12-05T09:47:37.418Z,10.90
2022-12-05T09:50:19.374Z,9.60
2022-12-05T09:52:56.594Z,9.07
2022-12-05T09:55:24.886Z,10.17
2022-12-05T09:57:55.090Z,9.20
2022-12-05T10:00:24.652Z,8.87
2022-12-05T10:03:00.374Z,8.37
2022-12-05T10:05:40.567Z,8.50
2022-12-05T10:08:16.486Z,8.80
2022-12-05T10:10:55.271Z,7.90
2022-12-05T10:13:48.729Z,7.27
2022-12-05T10:16:22.756Z,8.47
2022-12-05T10:18:56.158Z,7.67
2022-12-05T10:21:32.942Z,7.80
2022-12-05T10:24:03.320Z,6.60
2022-12-05T10:26:34.930Z,6.50
2022-12-05T10:29:25.306Z,6.63
2022-12-05T10:31:58.650Z,6.70
2022-12-05T10:34:33.164Z,7.43
2022-12-05T10:37:11.500Z,6.93
2022-12-05T10:39:40.478Z,6.70
2022-12-05T10:42:13.902Z,6.80
2022-12-05T10:44:42.881Z,7.90
2022-12-05T10:47:13.048Z,8.47
2022-12-05T10:49:41.621Z,8.33
2022-12-05T10:52:12.473Z,8.80
2022-12-05T10:54:45.585Z,9.83
2022-12-05T10:57:23.501Z,8.80
2022-12-05T10:59:52.023Z,6.93
2022-12-05T11:02:25.878Z,6.40
2022-12-05T11:04:55.438Z,5.50
2022-12-05T11:07:31.287Z,6.63
2022-12-05T11:10:00.200Z,5.47
2022-12-05T11:12:30.316Z,6.37
2022-12-05T11:15:02.950Z,6.80
2022-12-05T11:17:36.857Z,6.40
2022-12-05T11:20:27.681Z,6.10
2022-12-05T11:22:59.407Z,4.93
2022-12-05T11:25:32.756Z,4.80
2022-12-05T11:28:03.201Z,5.10
2022-12-05T11:30:31.379Z,4.80
2022-12-05T11:33:19.326Z,4.73
2022-12-05T11:35:48.317Z,4.70
2022-12-05T11:38:20.345Z,4.50
2022-12-05T11:40:54.897Z,4.70
2022-12-05T11:43:49.955Z,4.53
2022-12-05T11:46:29.354Z,6.03
2022-12-05T11:49:07.015Z,6.67
2022-12-05T11:51:40.889Z,5.77
2022-12-05T11:57:57.501Z,6.73
2022-12-05T12:00:30.207Z,6.13
2022-12-05T12:03:38.655Z,6.87
2022-12-05T12:06:20.949Z,10.60
2022-12-05T12:09:06.219Z,9.67
2022-12-05T12:11:41.776Z,10.77
2022-12-05T12:14:16.835Z,8.10
2022-12-05T12:16:58.514Z,7.27
2022-12-05T12:19:38.785Z,6.30
2022-12-05T12:22:27.952Z,6.87
2022-12-05T12:25:10.976Z,5.90
2022-12-05T12:27:49.945Z,7.20
2022-12-05T12:30:22.578Z,7.20
2022-12-05T12:33:02.068Z,6.40
2022-12-05T12:35:32.049Z,6.83
2022-12-05T12:38:20.942Z,7.30
2022-12-05T12:40:51.660Z,8.10
2022-12-05T12:43:56.302Z,7.43
2022-12-05T12:46:38.321Z,7.20
2022-12-05T12:49:23.449Z,7.20
2022-12-05T12:51:54.816Z,8.30
2022-12-05T12:55:03.414Z,9.10
2022-12-05T12:57:42.302Z,8.10
2022-12-05T13:00:22.146Z,8.43
2022-12-05T13:02:58.123Z,9.43
2022-12-05T13:05:34.155Z,10.77
2022-12-05T13:08:11.303Z,8.97
2022-12-05T13:10:43.133Z,10.90
2022-12-05T13:13:17.352Z,7.93
2022-12-05T13:15:51.245Z,8.03
2022-12-05T13:18:22.016Z,8.67
2022-12-05T13:20:52.670Z,11.17
2022-12-05T13:23:24.061Z,10.63
2022-12-05T13:25:54.532Z,12.17
2022-12-05T13:28:29.441Z,11.20
2022-12-05T13:31:01.933Z,8.90
2022-12-05T13:33:34.830Z,9.00
2022-12-05T13:36:29.449Z,8.77
2022-12-05T13:39:17.336Z,9.30
2022-12-05T13:42:05.408Z,8.50
2022-12-05T13:44:38.769Z,8.80
2022-12-05T13:47:20.413Z,6.60
2022-12-05T13:49:53.450Z,7.20
2022-12-05T13:52:24.813Z,8.40
2022-12-05T13:54:57.665Z,7.50
2022-12-05T13:57:46.697Z,7.23
2022-12-05T14:00:30.320Z,6.90
2022-12-05T14:03:08.670Z,6.30
2022-12-05T14:05:47.016Z,6.70
2022-12-05T14:08:52.461Z,7.07
2022-12-05T14:11:21.121Z,7.50
2022-12-05T14:13:50.008Z,8.10
2022-12-05T14:16:53.185Z,8.83
2022-12-05T14:19:48.364Z,9.10
2022-12-05T14:22:53.631Z,7.80
2022-12-05T14:25:44.399Z,9.40
2022-12-05T14:28:29.462Z,8.33
2022-12-05T14:31:14.504Z,8.20
2022-12-05T14:33:42.917Z,7.93
2022-12-05T14:36:30.964Z,7.10
2022-12-05T14:39:00.336Z,6.80
2022-12-05T14:41:33.909Z,7.17
2022-12-05T14:44:08.413Z,6.90
2022-12-05T14:46:37.370Z,7.00
2022-12-05T14:49:53.071Z,7.00
2022-12-05T14:52:25.285Z,6.63
2022-12-05T14:54:56.650Z,7.27
2022-12-05T14:57:25.432Z,6.67
2022-12-05T14:59:58.003Z,6.80
2022-12-05T15:02:29.111Z,6.73
2022-12-05T15:05:00.771Z,7.63
2022-12-05T15:07:35.527Z,8.83
2022-12-05T15:10:06.148Z,10.07
2022-12-05T15:12:40.552Z,9.67
2022-12-05T15:15:17.300Z,8.50
2022-12-05T15:17:50.096Z,8.27
2022-12-05T15:20:26.031Z,7.30
2022-12-05T15:22:55.649Z,7.30
2022-12-05T15:25:29.603Z,6.83
2022-12-05T15:28:00.534Z,5.33
2022-12-05T15:30:30.425Z,5.80
2022-12-05T15:32:59.835Z,5.17
2022-12-05T15:35:32.811Z,5.70
2022-12-05T15:38:09.352Z,5.10
2022-12-05T15:40:40.653Z,5.20
2022-12-05T15:43:29.443Z,5.23
2022-12-05T15:46:11.104Z,5.40
2022-12-05T15:48:39.312Z,8.30
2022-12-05T15:51:09.602Z,8.67
2022-12-05T15:53:43.563Z,7.50
2022-12-05T15:56:16.696Z,7.53
2022-12-05T15:58:47.449Z,9.63
2022-12-05T16:01:21.624Z,6.77
2022-12-05T16:03:53.865Z,9.30
2022-12-05T16:06:26.962Z,7.83
2022-12-05T16:08:58.349Z,9.20
2022-12-05T16:11:27.075Z,8.20
2022-12-05T16:13:59.204Z,8.60
2022-12-05T16:16:30.349Z,8.50
2022-12-05T16:19:00.117Z,7.80
2022-12-05T16:21:38.840Z,15.17
2022-12-05T16:24:18.280Z,9.50
2022-12-05T16:26:58.020Z,9.50
2022-12-05T16:29:28.825Z,9.20
2022-12-05T16:31:57.936Z,7.70
2022-12-05T16:34:27.677Z,8.40
2022-12-05T16:36:57.886Z,8.23
2022-12-05T16:39:29.204Z,9.70
2022-12-05T16:41:57.806Z,9.93
2022-12-05T16:45:02.030Z,11.40
2022-12-05T16:47:59.615Z,11.10
2022-12-05T16:50:33.073Z,7.60
2022-12-05T16:53:15.951Z,10.93
2022-12-05T16:55:46.258Z,8.77
2022-12-05T16:58:21.478Z,9.40
2022-12-05T17:00:49.870Z,9.97
2022-12-05T17:03:33.959Z,9.50
2022-12-05T17:06:04.715Z,10.00
2022-12-05T17:08:32.878Z,9.93
2022-12-05T17:11:03.622Z,9.80
2022-12-05T17:13:32.565Z,9.20
2022-12-05T17:16:00.714Z,10.40
2022-12-05T17:18:31.747Z,8.13
2022-12-05T17:21:02.561Z,9.17
2022-12-05T17:23:30.719Z,10.20
2022-12-05T17:26:00.006Z,10.70
2022-12-05T17:28:29.624Z,11.30
2022-12-05T17:30:57.831Z,9.77
2022-12-05T17:33:25.966Z,11.57
2022-12-05T17:35:54.095Z,11.90
2022-12-05T17:38:22.191Z,11.40
2022-12-05T17:40:50.288Z,11.37
2022-12-05T17:43:24.460Z,12.00
2022-12-05T17:45:54.961Z,11.40
2022-12-05T17:48:23.349Z,15.47
2022-12-05T17:50:51.792Z,16.47
2022-12-05T17:53:22.300Z,15.47
2022-12-05T17:55:50.863Z,15.37
2022-12-05T17:58:19.410Z,15.67
2022-12-05T18:00:48.495Z,15.33
2022-12-05T18:03:19.437Z,17.37
2022-12-05T18:05:48.402Z,17.90
2022-12-05T18:08:17.663Z,17.30
2022-12-05T18:10:47.562Z,17.07
2022-12-05T18:13:17.374Z,13.47
2022-12-05T18:15:47.511Z,12.47
2022-12-05T18:18:18.773Z,13.10
2022-12-05T18:20:46.921Z,12.63
2022-12-05T18:23:15.579Z,11.70
2022-12-05T18:25:43.991Z,11.47
2022-12-05T18:28:16.381Z,12.43
2022-12-05T18:30:47.695Z,15.37
2022-12-05T18:33:15.837Z,17.63
2022-12-05T18:35:47.034Z,16.40
2022-12-05T18:38:15.359Z,20.77
2022-12-05T18:40:43.425Z,18.40
2022-12-05T18:43:11.567Z,21.73
2022-12-05T18:45:39.988Z,21.03
2022-12-05T18:48:37.716Z,23.60
2022-12-05T18:51:07.838Z,23.43
2022-12-05T18:53:36.074Z,25.63
2022-12-05T18:56:21.603Z,24.40
2022-12-05T18:58:55.115Z,21.13
2022-12-05T19:01:23.832Z,21.00
2022-12-05T19:03:52.385Z,19.30
2022-12-05T19:06:23.885Z,20.90
2022-12-05T19:08:54.603Z,22.03
2022-12-05T19:11:23.228Z,22.30
2022-12-05T19:13:51.965Z,26.77
2022-12-05T19:16:20.312Z,27.77
2022-12-05T19:18:48.710Z,25.40
2022-12-05T19:21:16.859Z,20.20
2022-12-05T19:23:46.378Z,17.13
2022-12-05T19:26:15.253Z,15.43
2022-12-05T19:28:43.594Z,13.80
2022-12-05T19:31:13.487Z,13.87
2022-12-05T19:33:43.996Z,12.47
2022-12-05T19:36:15.382Z,13.23
2022-12-05T19:38:46.659Z,11.60
2022-12-05T19:41:17.115Z,11.60
2022-12-05T19:43:45.771Z,10.10
2022-12-05T19:46:16.326Z,10.13
2022-12-05T19:48:44.781Z,8.97
2022-12-05T19:51:13.360Z,8.60
2022-12-05T19:53:43.758Z,7.97
2022-12-05T19:56:16.428Z,6.90
2022-12-05T19:58:44.982Z,7.10
2022-12-05T20:01:16.123Z,7.70
2022-12-05T20:03:47.347Z,8.10
2022-12-05T20:06:16.663Z,7.87
2022-12-05T20:08:44.958Z,8.37
2022-12-05T20:11:16.046Z,7.40
2022-12-05T20:13:47.588Z,6.67
2022-12-05T20:16:19.057Z,7.57
2022-12-05T20:18:47.816Z,7.83
2022-12-05T20:21:17.957Z,7.30
2022-12-05T20:23:46.785Z,8.87
2022-12-05T20:26:17.590Z,8.07
2022-12-05T20:28:46.915Z,7.60
2022-12-05T20:31:16.981Z,7.70
2022-12-05T20:33:45.606Z,9.20
2022-12-05T20:36:16.645Z,7.23
2022-12-05T20:38:45.526Z,7.37
2022-12-05T20:41:18.653Z,7.23
2022-12-05T20:43:48.273Z,6.80
2022-12-05T20:46:17.766Z,7.97
2022-12-05T20:48:46.805Z,7.90
2022-12-05T20:51:18.349Z,7.50
2022-12-05T20:53:47.397Z,7.90
2022-12-05T20:56:18.729Z,7.67
2022-12-05T20:58:48.956Z,8.73
2022-12-05T21:01:18.224Z,9.40
2022-12-05T21:03:48.322Z,7.83
2022-12-05T21:06:18.846Z,7.43
2022-12-05T21:08:47.225Z,8.57
2022-12-05T21:11:16.863Z,10.03
2022-12-05T21:13:45.626Z,11.40
2022-12-05T21:16:16.518Z,10.07
2022-12-05T21:18:45.395Z,10.93
2022-12-05T21:21:15.811Z,12.13
2022-12-05T21:23:44.250Z,23.03
2022-12-05T21:26:14.259Z,10.43
2022-12-05T21:28:44.717Z,13.13
2022-12-05T21:31:15.076Z,14.43
2022-12-05T21:33:47.194Z,20.50
2022-12-05T21:36:15.462Z,24.27
2022-12-05T21:38:43.691Z,16.13
2022-12-05T21:41:12.285Z,10.30
2022-12-05T21:43:40.497Z,10.10
2022-12-05T21:46:10.085Z,8.23
2022-12-05T21:48:38.481Z,7.63
2022-12-05T21:51:07.639Z,8.10
2022-12-05T21:53:35.924Z,10.23
2022-12-05T21:56:06.073Z,8.80
2022-12-05T21:58:38.050Z,8.17
2022-12-05T22:01:10.870Z,8.83
2022-12-05T22:03:39.656Z,8.57
2022-12-05T22:06:10.164Z,7.30
2022-12-05T22:08:39.446Z,7.13
2022-12-05T22:11:08.563Z,6.93
2022-12-05T22:13:37.036Z,9.43
2022-12-05T22:16:06.202Z,8.63
2022-12-05T22:18:36.480Z,7.80
2022-12-05T22:21:06.505Z,7.50
2022-12-05T22:23:36.571Z,9.50
2022-12-05T22:26:06.741Z,7.30
2022-12-05T22:28:35.974Z,7.43
2022-12-05T22:31:06.377Z,6.30
2022-12-05T22:33:36.895Z,7.60
2022-12-05T22:36:07.093Z,6.43
2022-12-05T22:38:36.541Z,6.77
2022-12-05T22:41:07.035Z,7.10
2022-12-05T22:43:36.606Z,6.67
2022-12-05T22:46:06.489Z,6.63
2022-12-05T22:48:36.968Z,6.50
2022-12-05T22:51:06.351Z,6.10
2022-12-05T22:53:35.120Z,5.90
2022-12-05T22:56:04.760Z,6.27
2022-12-05T22:58:33.637Z,6.73
2022-12-05T23:01:10.260Z,6.47
2022-12-05T23:03:40.073Z,5.77
2022-12-05T23:06:11.737Z,6.67
2022-12-05T23:08:41.307Z,6.00
2022-12-05T23:11:10.166Z,5.20
2022-12-05T23:13:39.433Z,6.73
2022-12-05T23:16:09.467Z,6.20
2022-12-05T23:18:47.681Z,6.60
2022-12-05T23:21:18.241Z,6.40
2022-12-05T23:23:47.148Z,6.57
2022-12-05T23:26:16.405Z,6.13
2022-12-05T23:28:44.943Z,6.00
2022-12-05T23:31:14.583Z,6.30
2022-12-05T23:33:44.197Z,6.43
2022-12-05T23:36:13.349Z,5.50
2022-12-05T23:38:43.065Z,5.47
2022-12-05T23:41:14.615Z,5.20
2022-12-05T23:43:43.790Z,4.80
2022-12-05T23:46:13.443Z,6.53
2022-12-05T23:48:43.515Z,6.10
2022-12-05T23:51:13.525Z,6.60
2022-12-05T23:53:43.607Z,6.50
2022-12-05T23:56:13.750Z,6.20
2022-12-05T23:58:42.489Z,6.37
